Time;durP1;ratioP1;P1;durP2;ratioP2;P2;SDS_P1;SDS_P2;PMS_P1;PMS_P2;Temp;Humidity;BMP_temperature;BMP_pressure;BME280_temperature;BME280_humidity;BME280_pressure;Samples;Min_cycle;Max_cycle;Signal;HPM_P1;HPM_P2
2022/04/26 03:36:41;;;;;;;4.00;2.40;;;;;;;16.99;47.29;94333.63;5040708;28;20305;-73
2022/04/26 03:39:09;;;;;;;4.20;2.57;;;;;;;16.98;47.25;94337.22;5049415;28;20198;-75
2022/04/26 03:41:37;;;;;;;2.70;2.10;;;;;;;16.97;47.37;94326.06;5049539;28;20245;-76
2022/04/26 03:44:04;;;;;;;8.50;2.43;;;;;;;16.91;47.27;94331.16;5049338;28;20190;-78
2022/04/26 03:46:31;;;;;;;2.50;1.80;;;;;;;16.99;47.39;94342.19;5049403;28;20675;-74
2022/04/26 03:48:59;;;;;;;4.73;2.57;;;;;;;17.02;47.32;94348.78;5048937;28;20187;-76
2022/04/26 03:51:26;;;;;;;2.23;2.03;;;;;;;17.01;47.53;94339.41;5049442;28;20183;-75
2022/04/26 03:53:52;;;;;;;5.97;2.03;;;;;;;17.03;47.60;94342.59;5049892;28;20266;-77
2022/04/26 03:56:19;;;;;;;7.40;2.20;;;;;;;17.05;47.52;94346.63;5050093;28;20201;-77
2022/04/26 03:58:46;;;;;;;4.40;2.60;;;;;;;17.06;47.58;94350.00;5053200;28;20194;-77
2022/04/26 04:01:15;;;;;;;6.60;2.10;;;;;;;17.05;47.45;94344.03;5052946;28;20229;-79
2022/04/26 04:03:42;;;;;;;4.73;2.30;;;;;;;17.05;47.66;94345.78;5052973;28;20218;-75
2022/04/26 04:06:10;;;;;;;4.07;2.37;;;;;;;17.13;47.86;94350.84;5053026;28;20195;-75
2022/04/26 04:08:37;;;;;;;7.00;2.50;;;;;;;17.16;47.83;94360.00;5053034;28;20231;-75
2022/04/26 04:11:04;;;;;;;3.93;2.50;;;;;;;17.14;47.90;94349.03;5052994;28;20592;-74
2022/04/26 04:13:30;;;;;;;5.33;2.70;;;;;;;17.21;47.87;94363.63;5052707;28;20198;-75
2022/04/26 04:15:57;;;;;;;6.73;2.60;;;;;;;17.21;47.79;94361.03;5052534;28;20190;-78
2022/04/26 04:21:10;;;;;;;5.87;2.77;;;;;;;17.22;47.91;94354.88;5052418;28;20213;-75
2022/04/26 04:23:38;;;;;;;4.87;2.30;;;;;;;17.34;47.83;94377.66;5052648;28;20202;-74
2022/04/26 04:26:05;;;;;;;7.07;2.50;;;;;;;17.37;47.83;94378.06;5052618;28;20195;-77
2022/04/26 04:28:33;;;;;;;4.03;2.63;;;;;;;17.32;47.81;94364.91;5052495;28;20279;-76
2022/04/26 04:31:00;;;;;;;5.70;2.50;;;;;;;17.46;48.11;94379.53;5052361;28;20331;-79
2022/04/26 04:33:29;;;;;;;9.20;2.67;;;;;;;17.65;48.30;94385.03;5052504;28;20194;-76
2022/04/26 04:35:55;;;;;;;4.60;2.50;;;;;;;17.89;48.36;94389.81;5051839;28;20179;-75
2022/04/26 04:38:26;;;;;;;4.57;2.50;;;;;;;18.19;48.93;94382.59;5052475;28;20195;-74
2022/04/26 04:40:53;;;;;;;6.43;2.70;;;;;;;18.44;49.42;94372.56;5052043;28;20718;-74
2022/04/26 04:43:20;;;;;;;9.57;4.10;;;;;;;19.04;60.15;94390.84;5052397;28;20234;-77
2022/04/26 04:45:48;;;;;;;9.87;3.60;;;;;;;19.59;59.97;94386.31;5052594;28;20190;-73
2022/04/26 04:48:15;;;;;;;9.57;2.83;;;;;;;20.04;57.66;94363.13;5052485;28;20230;-76
2022/04/26 04:50:42;;;;;;;11.80;3.17;;;;;;;20.78;55.56;94391.22;5052327;28;20191;-75
2022/04/26 04:53:09;;;;;;;5.53;2.87;;;;;;;21.47;53.53;94402.63;5052203;28;20191;-77
2022/04/26 04:55:39;;;;;;;9.73;2.87;;;;;;;22.17;51.18;94394.59;5052360;28;20187;-77
2022/04/26 04:58:06;;;;;;;9.53;2.87;;;;;;;22.94;49.75;94396.75;5052028;28;20195;-77
2022/04/26 05:00:33;;;;;;;5.45;2.50;;;;;;;23.67;48.14;94393.88;5052232;28;20195;-83
2022/04/26 05:03:00;;;;;;;6.55;2.53;;;;;;;24.44;46.59;94403.41;5051815;28;20218;-77
2022/04/26 05:05:27;;;;;;;17.40;2.65;;;;;;;25.18;44.82;94404.31;5051770;28;20662;-75
2022/04/26 05:07:54;;;;;;;6.05;2.38;;;;;;;25.89;43.61;94396.03;5050786;28;20199;-76
2022/04/26 05:10:21;;;;;;;10.93;2.67;;;;;;;26.67;42.12;94408.09;5051774;28;20231;-76
2022/04/26 05:12:49;;;;;;;8.88;2.70;;;;;;;27.40;40.52;94402.56;5051444;28;20203;-74
2022/04/26 05:15:16;;;;;;;7.10;2.42;;;;;;;28.12;39.56;94407.34;5052120;28;20273;-76
2022/04/26 05:17:43;;;;;;;8.80;2.60;;;;;;;28.82;38.18;94407.94;5051389;28;20649;-76
2022/04/26 05:20:11;;;;;;;9.05;2.40;;;;;;;29.52;37.09;94413.63;5051773;28;20194;-75
2022/04/26 05:25:18;;;;;;;1.95;1.70;;;;;;;30.90;34.42;94418.72;5050892;28;20191;-77
2022/04/26 05:27:49;;;;;;;5.95;1.63;;;;;;;31.53;33.66;94416.28;5051263;28;20191;-76
2022/04/26 05:30:16;;;;;;;8.15;2.30;;;;;;;32.15;32.69;94420.00;5051849;28;20183;-77
2022/04/26 05:32:43;;;;;;;8.55;2.40;;;;;;;32.78;31.68;94420.97;5051051;28;20935;-76
2022/04/26 05:35:11;;;;;;;2.20;1.70;;;;;;;33.32;30.76;94425.81;5051549;28;20667;-77
2022/04/26 05:37:38;;;;;;;6.90;2.00;;;;;;;33.88;29.92;94424.19;5051542;28;20245;-76
2022/04/26 05:40:06;;;;;;;6.47;1.83;;;;;;;34.39;29.31;94418.03;5051180;28;20191;-75
2022/04/26 05:42:37;;;;;;;2.45;1.52;;;;;;;34.92;28.85;94428.97;5051011;28;20594;-76
2022/04/26 05:45:06;;;;;;;6.78;2.10;;;;;;;35.40;27.83;94433.81;5051411;28;20187;-77
2022/04/26 05:47:33;;;;;;;4.00;2.05;;;;;;;35.86;27.29;94434.66;5051344;28;20191;-78
2022/04/26 05:50:00;;;;;;;3.15;1.95;;;;;;;36.29;26.94;94424.28;5051268;28;20245;-75
2022/04/26 05:52:27;;;;;;;4.28;1.73;;;;;;;36.73;26.06;94435.91;5051321;28;20191;-75
2022/04/26 05:54:53;;;;;;;4.15;1.50;;;;;;;37.14;25.72;94437.47;5051061;28;20195;-75
2022/04/26 05:57:20;;;;;;;6.70;2.10;;;;;;;37.51;25.49;94436.09;5051272;28;20195;-77
2022/04/26 05:59:47;;;;;;;4.93;1.60;;;;;;;37.85;25.05;94434.50;5050728;28;20191;-75
2022/04/26 06:02:15;;;;;;;5.65;1.75;;;;;;;38.18;24.51;94437.44;5051106;28;20568;-76
2022/04/26 06:04:42;;;;;;;7.90;1.95;;;;;;;38.47;24.19;94434.06;5050446;28;20709;-77
2022/04/26 06:07:09;;;;;;;6.93;2.00;;;;;;;38.82;23.92;94441.97;5051865;28;20183;-75
2022/04/26 06:09:37;;;;;;;3.55;1.50;;;;;;;39.11;23.60;94435.81;5049430;28;20231;-73
2022/04/26 06:12:05;;;;;;;4.82;2.38;;;;;;;39.39;23.57;94428.88;5049988;28;20202;-71
2022/04/26 06:14:32;;;;;;;3.45;1.63;;;;;;;39.71;23.01;94433.84;5050847;28;20222;-74
2022/04/26 06:16:59;;;;;;;4.32;1.95;;;;;;;39.99;23.10;94432.19;5050534;28;20199;-74
2022/04/26 06:19:27;;;;;;;5.15;2.10;;;;;;;40.28;22.65;94423.22;5049594;28;20198;-77
2022/04/26 06:21:54;;;;;;;2.60;1.63;;;;;;;40.56;22.36;94427.97;5047274;28;20297;-78
2022/04/26 06:24:21;;;;;;;2.72;1.40;;;;;;;40.84;21.99;94426.16;5048949;28;20191;-76
2022/04/26 06:26:48;;;;;;;4.95;1.45;;;;;;;41.13;21.84;94421.72;5049982;28;20558;-77
2022/04/26 06:29:14;;;;;;;3.80;1.67;;;;;;;41.41;21.38;94420.97;5050376;28;20191;-79
2022/04/26 06:31:42;;;;;;;2.97;1.70;;;;;;;41.66;21.30;94417.09;5048166;28;20198;-81
2022/04/26 06:34:09;;;;;;;3.15;1.30;;;;;;;41.84;20.98;94412.22;5052315;28;20204;-79
2022/04/26 06:36:37;;;;;;;4.38;1.88;;;;;;;42.17;20.85;94419.22;5050399;28;20210;-80
2022/04/26 06:39:04;;;;;;;5.63;2.10;;;;;;;42.42;20.28;94415.28;5049993;28;20199;-80
2022/04/26 06:41:31;;;;;;;2.50;1.70;;;;;;;42.57;20.13;94406.41;5049143;28;20716;-79
2022/04/26 06:43:58;;;;;;;4.43;2.03;;;;;;;42.87;20.22;94413.28;5049413;28;20183;-80
2022/04/26 06:46:25;;;;;;;4.90;1.85;;;;;;;43.08;19.95;94413.78;5049433;28;20199;-80
2022/04/26 06:48:57;;;;;;;3.33;1.75;;;;;;;43.27;19.45;94415.72;5049171;28;20190;-78
2022/04/26 06:51:24;;;;;;;3.53;1.58;;;;;;;43.45;19.40;94416.91;5049061;28;20251;-81
2022/04/26 06:53:52;;;;;;;4.35;1.60;;;;;;;43.62;19.00;94407.63;5049113;28;20213;-79
2022/04/26 06:56:19;;;;;;;2.22;1.70;;;;;;;43.78;18.99;94415.59;5049370;28;20666;-78
2022/04/26 06:58:46;;;;;;;2.88;1.50;;;;;;;43.79;18.90;94395.63;5049582;28;20194;-78
2022/04/26 07:01:13;;;;;;;3.75;1.90;;;;;;;44.00;19.02;94409.53;5049241;28;20214;-79
2022/04/26 07:03:40;;;;;;;3.45;1.60;;;;;;;44.10;19.12;94410.84;5048863;28;20225;-79
2022/04/26 07:06:07;;;;;;;1.60;1.50;;;;;;;44.05;18.48;94390.34;5049375;28;20194;-78
2022/04/26 07:08:38;;;;;;;6.38;2.13;;;;;;;44.23;18.83;94414.16;5049170;28;20563;-78
2022/04/26 07:11:07;;;;;;;1.88;1.60;;;;;;;44.27;18.55;94409.63;5049161;28;20611;-79
2022/04/26 07:13:33;;;;;;;2.72;1.50;;;;;;;44.24;18.12;94394.94;5049043;28;20580;-78
2022/04/26 07:16:01;;;;;;;2.30;1.67;;;;;;;44.30;17.98;94408.88;5048552;28;20185;-76
2022/04/26 07:18:29;;;;;;;2.55;1.30;;;;;;;44.28;18.08;94400.38;5049279;28;20187;-80
2022/04/26 07:20:55;;;;;;;2.33;1.40;;;;;;;44.34;17.97;94408.94;5046057;28;20193;-81
2022/04/26 07:23:22;;;;;;;4.05;1.60;;;;;;;44.27;18.32;94391.53;5049261;28;20210;-78
2022/04/26 07:25:51;;;;;;;5.95;1.70;;;;;;;44.37;18.36;94406.31;5048742;28;20696;-79
2022/04/26 07:28:20;;;;;;;2.33;1.42;;;;;;;44.37;17.96;94409.00;5046640;28;20198;-81
2022/04/26 07:30:47;;;;;;;3.35;1.65;;;;;;;44.41;17.82;94409.06;5050664;28;20571;-78
2022/04/26 07:35:58;;;;;;;2.33;1.63;;;;;;;44.36;18.32;94407.47;5054360;28;20193;-80
2022/04/26 07:38:25;;;;;;;6.95;1.77;;;;;;;44.38;18.22;94418.66;5053535;28;20186;-78
2022/04/26 07:40:52;;;;;;;3.10;1.70;;;;;;;44.37;18.17;94405.53;5053313;28;20186;-79
2022/04/26 07:43:21;;;;;;;2.63;1.33;;;;;;;44.33;18.02;94402.78;5052925;28;20225;-75
2022/04/26 07:45:48;;;;;;;1.63;1.45;;;;;;;44.28;17.80;94405.78;5052868;28;20190;-79
2022/04/26 07:48:16;;;;;;;2.30;1.70;;;;;;;44.23;18.17;94411.44;5052216;28;20232;-79
2022/04/26 07:50:44;;;;;;;5.07;2.28;;;;;;;44.18;17.91;94409.06;5052335;28;20190;-78
2022/04/26 07:53:12;;;;;;;1.77;1.23;;;;;;;44.15;18.16;94404.38;5052414;28;20178;-76
2022/04/26 07:55:39;;;;;;;1.67;1.20;;;;;;;44.09;17.82;94398.50;5052442;28;20225;-76
2022/04/26 07:58:06;;;;;;;4.65;1.88;;;;;;;44.03;18.16;94408.78;5052447;28;20194;-80
2022/04/26 08:00:35;;;;;;;2.28;1.65;;;;;;;43.94;17.81;94405.53;5052067;28;20199;-79
2022/04/26 08:03:03;;;;;;;5.13;1.70;;;;;;;43.87;17.97;94399.25;5049696;28;20202;-78
2022/04/26 08:05:31;;;;;;;3.58;1.70;;;;;;;43.76;18.04;94402.50;5050106;28;20193;-81
2022/04/26 08:07:57;;;;;;;2.22;1.38;;;;;;;43.69;18.13;94401.56;5049737;28;20646;-78
2022/04/26 08:10:24;;;;;;;2.75;1.40;;;;;;;43.58;18.04;94394.06;5051760;28;20226;-80
2022/04/26 08:12:52;;;;;;;5.03;1.90;;;;;;;43.42;18.16;94387.16;5049395;28;20685;-78
2022/04/26 08:15:19;;;;;;;2.38;1.38;;;;;;;43.31;17.86;94392.31;5049226;28;20277;-80
2022/04/26 08:17:49;;;;;;;2.20;1.35;;;;;;;43.25;18.07;94399.13;5050883;28;20858;-79
2022/04/26 08:20:16;;;;;;;2.83;1.60;;;;;;;42.99;18.41;94383.56;5051393;28;20229;-81
2022/04/26 08:22:43;;;;;;;5.47;1.90;;;;;;;42.97;17.91;94399.28;5051985;28;20213;-79
2022/04/26 08:27:55;;;;;;;6.25;1.77;;;;;;;42.64;18.57;94387.03;5052090;28;20580;-81
2022/04/26 08:30:23;;;;;;;8.50;2.00;;;;;;;42.48;18.72;94387.00;5051502;28;20993;-79
2022/04/26 08:32:51;;;;;;;4.07;2.03;;;;;;;42.29;18.40;94387.69;5051141;28;20194;-79
2022/04/26 08:35:21;;;;;;;6.30;1.92;;;;;;;42.04;18.85;94383.59;5051579;28;20207;-78
2022/04/26 08:37:48;;;;;;;3.97;1.80;;;;;;;41.94;18.90;94392.16;5051783;28;20202;-78
2022/04/26 08:40:16;;;;;;;4.25;2.20;;;;;;;41.53;19.07;94361.88;5051988;28;20209;-77
2022/04/26 08:42:45;;;;;;;5.97;2.03;;;;;;;41.57;19.09;94393.06;5048726;28;20234;-82
2022/04/26 08:45:13;;;;;;;4.70;1.90;;;;;;;41.34;19.00;94383.97;5052767;28;20183;-79
2022/04/26 08:53:16;;;;;;;4.25;2.20;;;;;;;40.67;19.43;94378.13;5050730;28;20197;-77
2022/04/26 08:55:44;;;;;;;6.97;2.00;;;;;;;40.50;19.96;94389.84;5049762;28;20282;-75
2022/04/26 08:58:13;;;;;;;3.83;2.17;;;;;;;40.32;19.85;94391.16;5050544;28;20195;-78
2022/04/26 09:00:42;;;;;;;4.65;2.33;;;;;;;40.15;20.11;94386.78;5051309;28;20183;-82
2022/04/26 09:03:11;;;;;;;4.60;1.98;;;;;;;39.95;20.09;94383.06;5050688;28;20298;-77
2022/04/26 09:05:42;;;;;;;6.32;2.70;;;;;;;39.76;20.02;94390.81;5050882;28;20195;-78
2022/04/26 09:08:22;;;;;;;7.38;2.72;;;;;;;39.51;20.50;94380.00;5050921;28;20653;-78
2022/04/26 09:10:50;;;;;;;7.68;2.33;;;;;;;39.33;20.45;94383.91;5053906;28;20264;-83
2022/04/26 09:13:20;;;;;;;5.82;2.22;;;;;;;39.12;20.70;94384.69;5054423;28;20190;-83
2022/04/26 09:15:50;;;;;;;6.85;2.35;;;;;;;38.85;20.93;94371.78;5050290;28;20200;-78
2022/04/26 09:18:21;;;;;;;8.20;2.25;;;;;;;38.69;21.21;94376.09;5050799;28;20191;-78
2022/04/26 09:20:52;;;;;;;5.63;2.40;;;;;;;38.50;21.06;94379.19;5049720;28;20222;-77
2022/04/26 09:23:21;;;;;;;7.95;2.50;;;;;;;38.31;21.27;94382.25;5047205;28;20230;-76
2022/04/26 09:25:48;;;;;;;5.57;2.03;;;;;;;38.06;21.43;94360.66;5047870;28;20821;-78
2022/04/26 09:28:24;;;;;;;6.75;2.65;;;;;;;37.90;21.87;94368.38;5050508;28;20202;-73
2022/04/26 09:30:53;;;;;;;5.22;2.30;;;;;;;37.71;21.83;94372.50;5048806;28;20203;-74
2022/04/26 09:33:36;;;;;;;7.07;2.30;;;;;;;37.48;22.17;94372.69;5050559;28;20356;-74
2022/04/26 09:36:06;;;;;;;10.65;2.55;;;;;;;37.23;22.27;94374.22;5048397;28;20211;-73
2022/04/26 09:38:34;;;;;;;11.82;2.65;;;;;;;36.99;22.17;94374.69;5050279;28;20187;-73
2022/04/26 09:41:02;;;;;;;5.95;2.85;;;;;;;36.75;22.45;94366.31;5050184;28;20675;-74
2022/04/26 09:43:29;;;;;;;7.32;2.20;;;;;;;36.56;22.43;94358.56;5050280;28;20225;-73
2022/04/26 09:45:57;;;;;;;4.78;2.58;;;;;;;36.36;22.71;94357.25;5049216;28;20183;-74
2022/04/26 09:48:29;;;;;;;9.10;3.03;;;;;;;36.17;22.88;94352.16;5049161;28;20677;-74
2022/04/26 09:50:57;;;;;;;10.25;2.85;;;;;;;35.98;23.16;94354.28;5049577;28;20605;-73
2022/04/26 09:53:26;;;;;;;6.95;2.33;;;;;;;35.77;23.15;94346.78;5050144;28;20257;-72
2022/04/26 09:55:55;;;;;;;10.07;2.63;;;;;;;35.58;23.56;94340.84;5049946;28;20332;-74
2022/04/26 09:58:24;;;;;;;8.75;2.30;;;;;;;35.44;23.44;94348.88;5046959;28;20191;-72
2022/04/26 10:00:52;;;;;;;5.05;2.33;;;;;;;35.29;23.87;94349.25;5047046;28;20202;-72
2022/04/26 10:03:21;;;;;;;6.03;2.65;;;;;;;35.13;23.72;94346.16;5049713;28;20223;-71
2022/04/26 10:05:50;;;;;;;6.90;2.78;;;;;;;34.98;24.21;94343.84;5048862;28;20195;-74
2022/04/26 10:08:19;;;;;;;6.20;2.78;;;;;;;34.83;24.42;94340.38;5050268;28;20194;-75
2022/04/26 10:10:47;;;;;;;9.98;3.00;;;;;;;34.67;24.14;94337.28;5049639;28;20207;-73
2022/04/26 10:13:35;;;;;;;6.43;2.65;;;;;;;34.49;24.28;94332.88;5049871;28;20202;-74
2022/04/26 10:16:04;;;;;;;8.65;2.50;;;;;;;34.36;24.31;94337.06;5049451;28;20195;-74
2022/04/26 10:18:32;;;;;;;9.77;2.60;;;;;;;34.25;24.17;94338.38;5047849;28;20179;-76
2022/04/26 10:20:58;;;;;;;9.85;3.00;;;;;;;34.12;24.29;94328.53;5048549;28;20226;-72
2022/04/26 10:23:25;;;;;;;7.25;2.58;;;;;;;34.00;24.54;94331.66;5046467;28;20214;-72
2022/04/26 10:26:25;;;;;;;6.22;2.65;;;;;;;33.87;24.83;94333.19;5048420;28;20191;-75
2022/04/26 10:28:54;;;;;;;8.95;3.10;;;;;;;33.74;25.05;94331.31;5049435;28;20179;-74
2022/04/26 10:31:35;;;;;;;8.98;2.65;;;;;;;33.62;25.19;94323.81;5046862;28;21310;-73
2022/04/26 10:34:15;;;;;;;8.40;2.55;;;;;;;33.51;25.41;94321.63;5047692;28;20214;-72
2022/04/26 10:36:42;;;;;;;9.32;2.75;;;;;;;33.40;25.49;94313.03;5049030;28;20206;-73
2022/04/26 10:39:36;;;;;;;12.13;2.75;;;;;;;33.21;25.31;94310.41;5048237;28;20681;-76
2022/04/26 10:42:07;;;;;;;12.00;2.60;;;;;;;33.13;25.44;94309.22;5047669;28;20709;-72
2022/04/26 10:44:44;;;;;;;8.75;2.17;;;;;;;33.01;25.62;94306.22;5048505;28;20590;-73
2022/04/26 10:47:36;;;;;;;6.45;2.28;;;;;;;32.88;25.44;94299.75;5050087;28;20187;-78
2022/04/26 10:50:05;;;;;;;10.35;2.35;;;;;;;32.77;25.96;94308.09;5049509;28;20194;-80
2022/04/26 10:52:44;;;;;;;5.93;2.25;;;;;;;32.62;25.73;94301.94;5030802;28;20244;-75
2022/04/26 10:55:18;;;;;;;3.97;2.15;;;;;;;32.43;25.46;94277.34;5049878;28;20191;-78
2022/04/26 10:57:49;;;;;;;8.00;2.05;;;;;;;32.47;25.96;94297.66;5049006;28;20190;-73
2022/04/26 11:00:26;;;;;;;8.18;2.45;;;;;;;32.36;25.57;94287.44;5049303;28;20191;-80
2022/04/26 11:02:53;;;;;;;3.83;2.20;;;;;;;32.36;25.89;94290.88;5032434;28;20226;-78
2022/04/26 11:05:26;;;;;;;6.70;2.65;;;;;;;32.31;25.56;94288.31;5048649;28;20198;-79
2022/04/26 11:07:55;;;;;;;4.75;2.22;;;;;;;32.19;25.72;94285.25;5048717;28;20210;-76
2022/04/26 11:10:23;;;;;;;6.30;2.28;;;;;;;32.21;25.63;94291.88;5048609;28;20375;-76
2022/04/26 11:12:51;;;;;;;6.93;2.10;;;;;;;32.14;25.92;94288.75;5049020;28;20183;-75
2022/04/26 11:15:20;;;;;;;5.20;2.25;;;;;;;32.06;25.89;94286.75;5048930;28;20844;-78
2022/04/26 11:18:29;;;;;;;4.03;1.90;;;;;;;32.00;26.25;94282.59;5178182;22;21383;-76
2022/04/26 11:20:58;;;;;;;7.90;2.75;;;;;;;31.79;26.08;94260.03;5065480;28;20589;-75
2022/04/26 11:29:26;;;;;;;7.65;2.42;;;;;;;31.69;26.60;94274.13;5067844;28;20189;-77
2022/04/26 11:31:54;;;;;;;6.72;1.98;;;;;;;31.62;26.46;94263.13;5066146;28;20195;-74
2022/04/26 11:34:49;;;;;;;6.70;2.03;;;;;;;31.66;26.07;94269.44;5068507;28;20217;-74
2022/04/26 11:37:16;;;;;;;6.20;2.13;;;;;;;31.61;26.08;94264.97;5067309;28;20815;-73
2022/04/26 11:39:43;;;;;;;6.35;2.05;;;;;;;31.62;26.21;94268.41;5068035;28;20661;-75
2022/04/26 11:42:12;;;;;;;10.48;2.42;;;;;;;31.48;26.46;94247.13;5068471;28;20208;-72
2022/04/26 11:44:56;;;;;;;4.43;2.03;;;;;;;31.48;26.60;94260.34;5068316;28;20210;-73
2022/04/26 11:47:39;;;;;;;5.85;2.30;;;;;;;31.45;26.32;94263.53;5067462;28;20197;-74
2022/04/26 11:50:15;;;;;;;4.30;1.92;;;;;;;31.45;26.12;94253.75;5068629;28;20285;-74
2022/04/26 11:52:43;;;;;;;4.70;2.33;;;;;;;31.43;26.32;94252.44;5068233;28;20186;-74
2022/04/26 11:55:23;;;;;;;3.28;1.80;;;;;;;31.42;26.45;94241.09;5067834;28;20232;-74
2022/04/26 11:57:51;;;;;;;7.55;2.28;;;;;;;31.53;26.51;94246.31;5067517;28;20193;-72
2022/04/26 12:00:20;;;;;;;4.20;2.00;;;;;;;31.57;26.19;94244.66;5068652;28;20661;-74
2022/04/26 12:02:48;;;;;;;6.07;2.28;;;;;;;31.55;26.01;94241.50;5067957;28;20208;-74
2022/04/26 12:05:21;;;;;;;8.32;2.10;;;;;;;31.53;26.14;94231.22;5065285;28;20201;-76
2022/04/26 12:07:49;;;;;;;2.78;1.85;;;;;;;31.60;26.00;94244.09;5068569;28;20619;-74
2022/04/26 12:10:30;;;;;;;4.13;2.00;;;;;;;31.60;25.78;94234.31;5069331;28;20193;-75
2022/04/26 12:12:58;;;;;;;4.65;2.30;;;;;;;31.60;25.89;94239.59;5068528;28;20205;-77
2022/04/26 12:15:27;;;;;;;4.60;2.00;;;;;;;31.56;26.10;94222.72;5067531;28;20194;-75
2022/04/26 12:18:08;;;;;;;5.32;2.08;;;;;;;31.29;25.92;94175.69;5069519;28;20277;-76
2022/04/26 12:20:38;;;;;;;3.25;1.70;;;;;;;31.65;25.75;94234.28;5072150;28;20226;-74
2022/04/26 12:23:06;;;;;;;4.40;2.20;;;;;;;31.65;25.98;94234.28;5069431;28;20270;-77
2022/04/26 12:25:36;;;;;;;7.05;2.13;;;;;;;31.64;26.27;94230.03;5071803;28;20200;-76
2022/04/26 12:28:05;;;;;;;4.18;1.83;;;;;;;31.53;26.10;94218.00;5069541;28;20197;-77
2022/04/26 12:30:33;;;;;;;3.72;2.00;;;;;;;31.48;26.25;94215.41;5071576;28;20591;-75
2022/04/26 12:33:00;;;;;;;2.75;1.92;;;;;;;31.38;26.15;94200.44;5071438;28;20217;-73
2022/04/26 12:35:27;;;;;;;7.85;2.75;;;;;;;31.44;25.92;94220.47;5072011;28;20221;-73
2022/04/26 12:38:09;;;;;;;5.18;2.00;;;;;;;31.37;26.03;94220.00;5070953;28;20217;-73
2022/04/26 12:40:37;;;;;;;7.78;2.40;;;;;;;31.31;26.36;94229.06;5069613;28;20191;-74
2022/04/26 12:43:23;;;;;;;9.20;2.53;;;;;;;31.11;26.26;94194.84;5071159;28;20190;-74
2022/04/26 12:45:58;;;;;;;5.90;1.85;;;;;;;31.19;26.11;94213.53;5070017;28;20213;-73
2022/04/26 12:51:17;;;;;;;6.32;1.98;;;;;;;31.11;25.95;94216.00;5071361;28;20292;-75
2022/04/26 12:53:46;;;;;;;7.20;2.50;;;;;;;31.05;26.46;94207.34;5071496;28;20197;-75
2022/04/26 12:56:14;;;;;;;4.82;2.03;;;;;;;31.00;25.98;94210.00;5070613;28;20198;-74
2022/04/26 12:58:42;;;;;;;3.78;1.75;;;;;;;30.90;26.20;94224.06;5070431;28;20202;-73
2022/04/26 13:01:10;;;;;;;10.40;2.25;;;;;;;30.79;26.85;94233.16;5070895;28;20186;-74
2022/04/26 13:03:38;;;;;;;3.72;1.83;;;;;;;30.65;27.29;94224.22;5070834;28;20222;-74
2022/04/26 13:06:08;;;;;;;13.63;2.22;;;;;;;30.42;27.45;94199.31;5071035;28;20195;-73
2022/04/26 13:08:36;;;;;;;7.85;1.75;;;;;;;30.36;27.62;94222.31;5071069;28;20222;-74
2022/04/26 13:11:05;;;;;;;6.90;1.70;;;;;;;30.23;27.44;94231.63;5071476;28;20226;-73
2022/04/26 13:13:33;;;;;;;5.00;2.22;;;;;;;30.08;27.77;94247.47;5071129;28;20198;-75
2022/04/26 13:16:00;;;;;;;6.53;1.77;;;;;;;29.94;27.91;94233.31;5070416;28;20190;-74
2022/04/26 13:18:28;;;;;;;4.80;1.83;;;;;;;29.82;28.30;94246.78;5070160;28;20664;-74
2022/04/26 13:20:56;;;;;;;6.30;2.00;;;;;;;29.68;28.53;94248.41;5052173;28;20613;-74
2022/04/26 13:23:23;;;;;;;5.65;1.70;;;;;;;29.46;28.50;94249.47;5050740;28;20218;-73
2022/04/26 13:25:51;;;;;;;9.40;1.85;;;;;;;29.28;28.63;94249.25;5051916;28;20202;-75
2022/04/26 13:28:20;;;;;;;3.80;1.42;;;;;;;29.13;28.83;94247.41;5050273;28;20199;-75
2022/04/26 13:30:47;;;;;;;3.75;1.70;;;;;;;28.99;29.18;94260.31;5050206;28;20191;-74
2022/04/26 13:33:14;;;;;;;7.43;1.95;;;;;;;28.81;29.05;94258.19;5050296;28;20198;-74
2022/04/26 13:35:41;;;;;;;3.13;1.65;;;;;;;28.57;29.15;94232.34;5050531;28;20198;-74
2022/04/26 13:38:09;;;;;;;7.57;1.95;;;;;;;28.53;29.30;94248.91;5050681;28;20209;-75
2022/04/26 13:40:37;;;;;;;6.20;1.70;;;;;;;28.32;29.45;94229.63;5050002;28;20217;-74
2022/04/26 13:43:05;;;;;;;3.97;1.67;;;;;;;28.24;29.82;94239.63;5047330;28;20202;-75
2022/04/26 13:45:34;;;;;;;1.80;1.40;;;;;;;27.85;29.86;94191.09;5050308;28;20308;-75
2022/04/26 13:48:02;;;;;;;9.48;1.60;;;;;;;27.96;30.17;94230.31;5050112;28;20209;-74
2022/04/26 13:50:30;;;;;;;4.30;1.67;;;;;;;27.84;30.48;94224.47;5049978;28;20249;-75
2022/04/26 13:52:57;;;;;;;4.65;1.73;;;;;;;27.71;30.79;94219.66;5050203;28;20234;-76
2022/04/26 13:55:26;;;;;;;4.75;1.77;;;;;;;27.57;31.06;94229.84;5050245;28;20187;-75
2022/04/26 13:57:54;;;;;;;2.28;1.73;;;;;;;27.43;31.15;94223.47;5050224;28;20540;-74
2022/04/26 14:00:21;;;;;;;5.88;1.70;;;;;;;27.33;31.49;94228.63;5050056;28;20191;-75
2022/04/26 14:02:50;;;;;;;4.85;1.30;;;;;;;27.13;31.61;94221.44;5050335;28;20184;-74
2022/04/26 14:05:20;;;;;;;1.40;1.30;;;;;;;27.11;31.88;94240.03;5049424;28;20223;-74
2022/04/26 14:07:48;;;;;;;1.63;1.40;;;;;;;27.07;32.10;94249.44;5050982;28;20202;-74
2022/04/26 14:10:15;;;;;;;2.78;1.45;;;;;;;26.99;32.46;94247.28;5050897;28;20195;-75
2022/04/26 14:12:43;;;;;;;4.88;1.80;;;;;;;26.99;32.67;94269.09;5050724;28;20202;-74
2022/04/26 14:23:38;;;;;;;4.22;1.65;;;;;;;26.86;33.73;94303.63;5049689;28;20202;-74
2022/04/26 14:26:06;;;;;;;3.13;2.10;;;;;;;26.87;33.68;94314.91;5049596;28;20768;-77
2022/04/26 14:28:33;;;;;;;3.72;1.65;;;;;;;26.88;33.73;94325.13;5049567;28;20282;-75
2022/04/26 14:31:00;;;;;;;3.00;1.70;;;;;;;26.86;33.58;94339.56;5049465;28;20194;-74
2022/04/26 14:33:28;;;;;;;3.38;1.85;;;;;;;26.77;33.83;94350.50;5049307;28;20670;-75
2022/04/26 14:35:55;;;;;;;2.83;1.75;;;;;;;26.70;33.74;94357.75;5051305;28;20198;-75
2022/04/26 14:38:22;;;;;;;2.58;1.55;;;;;;;26.64;34.08;94350.88;5049227;28;20199;-75
2022/04/26 14:40:49;;;;;;;3.92;2.15;;;;;;;26.59;33.95;94352.63;5049127;28;20543;-75
2022/04/26 14:43:16;;;;;;;6.13;1.90;;;;;;;26.51;34.02;94356.47;5050450;28;20191;-74
2022/04/26 14:45:46;;;;;;;3.10;1.58;;;;;;;26.44;34.08;94364.53;5049261;28;20226;-74
2022/04/26 14:48:16;;;;;;;6.25;1.65;;;;;;;26.37;34.23;94356.03;5046728;28;20206;-76
2022/04/26 14:50:45;;;;;;;6.72;1.85;;;;;;;26.30;34.27;94384.28;5049025;28;20225;-75
2022/04/26 14:53:13;;;;;;;3.80;1.85;;;;;;;26.26;34.08;94394.44;5049324;28;20333;-76
2022/04/26 14:55:40;;;;;;;5.35;1.40;;;;;;;26.15;34.06;94391.94;5048832;28;20206;-75
2022/04/26 14:58:10;;;;;;;5.45;1.70;;;;;;;26.19;34.20;94396.44;5047925;28;20678;-75
2022/04/26 15:00:40;;;;;;;3.58;1.55;;;;;;;26.12;34.10;94398.47;5047853;28;20214;-74
2022/04/26 15:03:07;;;;;;;5.82;1.67;;;;;;;26.10;34.32;94403.13;5049052;28;20203;-74
2022/04/26 15:05:34;;;;;;;2.17;1.45;;;;;;;26.12;34.08;94408.13;5049275;28;20218;-75
2022/04/26 15:10:46;;;;;;;2.97;1.50;;;;;;;26.04;34.17;94406.75;5048629;28;20578;-74
2022/04/26 15:18:43;;;;;;;1.77;1.27;;;;;;;25.87;34.92;94393.66;5054096;28;20205;-74
2022/04/26 15:21:10;;;;;;;7.15;1.65;;;;;;;25.82;35.20;94403.25;5069904;28;20178;-77
2022/04/26 15:23:38;;;;;;;1.65;1.45;;;;;;;25.80;35.59;94405.31;5070935;28;20193;-74
2022/04/26 15:26:06;;;;;;;2.42;1.65;;;;;;;25.74;35.41;94412.28;5069396;28;20214;-77
2022/04/26 15:28:35;;;;;;;3.58;1.50;;;;;;;25.70;35.73;94417.22;5069291;28;20194;-80
2022/04/26 15:31:06;;;;;;;2.58;1.67;;;;;;;25.47;35.80;94391.94;5069901;28;20745;-76
2022/04/26 15:33:33;;;;;;;4.72;1.63;;;;;;;25.29;35.74;94371.22;5069461;28;20607;-81
2022/04/26 15:36:01;;;;;;;4.65;1.73;;;;;;;25.40;35.67;94396.56;5068744;28;20549;-73
2022/04/26 15:38:28;;;;;;;4.30;2.00;;;;;;;25.55;35.75;94414.34;5068033;28;20217;-75
2022/04/26 15:41:08;;;;;;;2.65;1.25;;;;;;;25.10;35.59;94351.56;5067912;28;20194;-74
2022/04/26 15:43:36;;;;;;;3.20;1.88;;;;;;;24.70;35.80;94300.88;5069331;28;20230;-72
2022/04/26 15:46:08;;;;;;;3.33;1.50;;;;;;;24.31;35.90;94239.75;5065584;28;20249;-73
2022/04/26 15:48:38;;;;;;;2.50;1.45;;;;;;;25.26;36.06;94398.69;5066413;28;20208;-72
2022/04/26 15:51:06;;;;;;;5.22;2.28;;;;;;;25.28;35.99;94411.53;5068780;28;20198;-72
2022/04/26 15:53:33;;;;;;;1.90;1.80;;;;;;;25.23;36.09;94403.59;5072023;28;20198;-72
2022/04/26 15:56:01;;;;;;;3.15;2.05;;;;;;;25.18;36.06;94404.31;5072283;28;20187;-72
2022/04/26 15:58:28;;;;;;;4.63;1.88;;;;;;;24.97;36.02;94373.53;5071651;28;20677;-73
2022/04/26 16:00:57;;;;;;;2.50;1.80;;;;;;;25.06;36.10;94400.13;5069031;28;20187;-74